FAOR Airport Information

Runway Information
Airport Frequencies
Airport Navaids
Airport Weather Information & NOTAM
ADDS - METARS form results

(1827 UTC 19 January 2021)
Data provider http://aviationweather.gov/metar/data/
 
METAR text: FAOR 191800Z VRB04KT CAVOK 23/13 Q1020 NOSIG
Conditions at: FAOR (JOHANNESBURG/TAM, ZA) observed 1800 UTC 19 January 2021
Temperature: 23.0°C (73°F)
Dewpoint: 13.0°C (55°F) [RH = 53%]
Pressure (altimeter): 30.12 inches Hg (1020.0 mb)
Winds: variable direction winds at 5 MPH (4 knots; 2.1 m/s)
Visibility: 6 or more miles (10+ km)
Ceiling: ceiling and visibility are OK
Clouds: unknown
Weather: no significant weather observed at this time

METAR text: FAOR 191730Z 15004KT CAVOK 23/12 Q1020 NOSIG
Conditions at: FAOR (JOHANNESBURG/TAM, ZA) observed 1730 UTC 19 January 2021
Temperature: 23.0°C (73°F)
Dewpoint: 12.0°C (54°F) [RH = 50%]
Pressure (altimeter): 30.12 inches Hg (1020.0 mb)
Winds: from the SSE (150 degrees) at 5 MPH (4 knots; 2.1 m/s)
Visibility: 6 or more miles (10+ km)
Ceiling: ceiling and visibility are OK
Clouds: unknown
Weather: no significant weather observed at this time

Forecast for: FAOR (JOHANNESBURG/TAM, ZA)
Text: TAF FAOR 191600Z 1918/2024 VRB03KT CAVOK TX30/2013Z TN16/2003Z
Forecast period: 1800 UTC 19 January 2021 to 0900 UTC 20 January 2021
Forecast type: FROM: standard forecast or significant change
Winds: variable direction winds at 3 MPH (3 knots; 1.5 m/s)
Visibility: 6 or more miles (10+ km)
Ceiling: unknown
Clouds: missing
Weather: no significant weather forecast for this period
Text: FM200900 12012KT 9999 SCT040
Forecast period: 0900 UTC 20 January 2021 to 0000 UTC 21 January 2021
Forecast type: FROM: standard forecast or significant change
Winds: from the ESE (120 degrees) at 14 MPH (12 knots; 6.2 m/s)
Visibility: 6 or more miles (10+ km)
Ceiling: at least 12,000 feet AGL
Clouds: scattered clouds at 4000 feet AGL
Weather: no significant weather forecast for this period
Text: PROB30
Forecast period: 1400 to 1800 UTC 20 January 2021
Forecast type: TEMPORARY: The following changes expected for less than half the time period
Winds: from the E (90 degrees) at 18 MPH (16 knots; 8.2 m/s)
gusting to 30 MPH (26 knots; 13.4 m/s)
Visibility: missing
Ceiling: at least 12,000 feet AGL
Clouds: few clouds at 4000 feet AGL
Weather: no significant weather forecast for this period
Text: TEMPO 2014/2018 09016G26KT FEW040TCU
Forecast period: 1600 to 2100 UTC 20 January 2021
Forecast type: TEMPORARY: The following changes expected for less than half the time period
Visibility: missing
Ceiling: at least 12,000 feet AGL
Clouds: few clouds at 4000 feet AGL
Weather: TS  (thunderstorm)